Time;durP1;ratioP1;P1;durP2;ratioP2;P2;SDS_P1;SDS_P2;PMS_P1;PMS_P2;Temp;Humidity;BMP_temperature;BMP_pressure;BME280_temperature;BME280_humidity;BME280_pressure;Samples;Min_cycle;Max_cycle;Signal;HPM_P1;HPM_P2
2021/03/08 00:00:20;;;;;;;11.57;2.45;;;4.60;99.90;;;;;;5115784;28;20412;-57
2021/03/08 00:02:48;;;;;;;13.27;2.25;;;4.60;99.90;;;;;;5115790;28;20044;-57
2021/03/08 00:05:14;;;;;;;12.70;2.60;;;4.60;99.90;;;;;;5115577;28;20043;-56
2021/03/08 00:07:44;;;;;;;6.90;2.08;;;4.60;99.90;;;;;;5115910;28;20074;-56
2021/03/08 00:10:12;;;;;;;13.23;2.53;;;4.60;99.90;;;;;;5115400;28;20039;-56
2021/03/08 00:12:38;;;;;;;12.43;3.08;;;4.60;99.90;;;;;;5115781;28;20051;-56
2021/03/08 00:15:05;;;;;;;9.32;2.88;;;4.50;99.90;;;;;;5115477;28;20039;-56
2021/03/08 00:17:32;;;;;;;11.23;2.95;;;4.50;99.90;;;;;;5115443;28;20047;-56
2021/03/08 00:19:58;;;;;;;13.13;2.60;;;4.50;99.90;;;;;;5115102;28;20503;-57
2021/03/08 00:22:24;;;;;;;12.30;3.20;;;4.60;99.90;;;;;;5115219;28;20040;-57
2021/03/08 00:24:50;;;;;;;10.82;2.53;;;4.60;99.90;;;;;;5115179;28;20184;-56
2021/03/08 00:27:16;;;;;;;12.80;3.00;;;4.50;99.90;;;;;;5115370;28;20465;-57
2021/03/08 00:29:41;;;;;;;14.27;3.33;;;4.60;99.90;;;;;;5114890;28;20075;-57
2021/03/08 00:32:08;;;;;;;14.82;3.45;;;4.60;99.90;;;;;;5114979;28;20040;-56
2021/03/08 00:34:35;;;;;;;13.60;2.78;;;4.60;99.90;;;;;;5114761;28;20501;-56
2021/03/08 00:37:01;;;;;;;14.88;2.70;;;4.60;99.90;;;;;;5114972;28;20055;-56
2021/03/08 00:39:27;;;;;;;15.25;3.92;;;4.60;99.90;;;;;;5115130;28;20040;-57
2021/03/08 00:41:54;;;;;;;15.60;2.65;;;4.60;99.90;;;;;;5114781;28;20373;-56
2021/03/08 00:44:19;;;;;;;11.68;2.65;;;4.60;99.90;;;;;;5114955;28;20043;-56
2021/03/08 00:46:45;;;;;;;14.20;3.33;;;4.60;99.90;;;;;;5114813;28;20493;-56
2021/03/08 00:49:11;;;;;;;13.20;3.47;;;4.60;99.90;;;;;;5113949;28;20047;-56
2021/03/08 00:51:36;;;;;;;18.13;3.85;;;4.60;99.90;;;;;;5114618;28;20047;-57
2021/03/08 00:54:02;;;;;;;11.85;2.92;;;4.60;99.90;;;;;;5114578;28;20067;-57
2021/03/08 00:56:28;;;;;;;14.85;3.30;;;4.60;99.90;;;;;;5114703;28;20479;-57
2021/03/08 00:58:54;;;;;;;10.07;3.10;;;4.50;99.90;;;;;;5114913;28;20050;-57
2021/03/08 01:01:20;;;;;;;13.15;3.20;;;4.50;99.90;;;;;;5096014;28;20535;-57
2021/03/08 01:03:46;;;;;;;13.23;3.42;;;4.60;99.90;;;;;;5114396;28;20044;-57
2021/03/08 01:06:12;;;;;;;14.30;3.03;;;4.50;99.90;;;;;;5114337;28;20035;-57
2021/03/08 01:08:38;;;;;;;13.80;3.08;;;4.60;99.90;;;;;;5114111;28;20096;-57
2021/03/08 01:11:04;;;;;;;9.32;2.83;;;4.50;99.90;;;;;;5114210;28;20035;-57
2021/03/08 01:13:29;;;;;;;17.52;3.15;;;4.50;99.90;;;;;;5096233;28;20051;-57
2021/03/08 01:15:55;;;;;;;14.02;3.15;;;4.50;99.90;;;;;;5114213;28;20035;-57
2021/03/08 01:18:22;;;;;;;14.70;2.80;;;4.50;99.90;;;;;;5113917;28;20047;-56
2021/03/08 01:20:48;;;;;;;17.10;2.90;;;4.60;99.90;;;;;;5114331;28;20044;-57
2021/03/08 01:23:14;;;;;;;11.82;2.45;;;4.50;99.90;;;;;;5114019;28;20050;-56
2021/03/08 01:25:39;;;;;;;12.55;2.40;;;4.60;99.90;;;;;;5113785;28;20044;-56
2021/03/08 01:28:07;;;;;;;16.25;2.78;;;4.50;99.90;;;;;;5114294;28;20471;-56
2021/03/08 01:30:39;;;;;;;14.88;2.75;;;4.60;99.90;;;;;;5113845;28;20541;-56
2021/03/08 01:33:05;;;;;;;10.93;2.85;;;4.50;99.90;;;;;;5113866;28;20100;-57
2021/03/08 01:35:31;;;;;;;13.40;2.63;;;4.50;99.90;;;;;;5113751;28;20143;-57
2021/03/08 01:37:56;;;;;;;14.48;2.70;;;4.40;99.90;;;;;;5113747;28;20496;-56
2021/03/08 01:40:25;;;;;;;8.15;2.28;;;4.50;99.90;;;;;;5113593;28;20134;-57
2021/03/08 01:42:52;;;;;;;13.60;2.90;;;4.50;99.90;;;;;;5113632;28;20044;-56
2021/03/08 01:45:19;;;;;;;12.90;3.03;;;4.50;99.90;;;;;;5113739;28;20045;-57
2021/03/08 01:47:47;;;;;;;10.13;2.85;;;4.50;99.90;;;;;;5113487;28;20039;-57
2021/03/08 01:50:26;;;;;;;13.82;2.95;;;4.50;99.90;;;;;;5113551;28;20050;-56
2021/03/08 01:52:52;;;;;;;11.63;2.90;;;4.50;99.90;;;;;;5113698;28;20044;-56
2021/03/08 01:55:19;;;;;;;12.50;2.30;;;4.40;99.90;;;;;;5113555;28;20047;-56
2021/03/08 01:57:45;;;;;;;14.43;3.45;;;4.40;99.90;;;;;;5113264;28;20484;-57
2021/03/08 02:00:12;;;;;;;10.50;2.67;;;4.40;99.90;;;;;;5112537;28;20050;-56
2021/03/08 02:02:38;;;;;;;13.25;2.88;;;4.40;99.90;;;;;;5113448;28;20485;-56
2021/03/08 02:05:07;;;;;;;13.40;2.70;;;4.40;99.90;;;;;;5113368;28;20475;-56
2021/03/08 02:07:32;;;;;;;9.85;2.97;;;4.40;99.90;;;;;;5113217;28;20122;-56
2021/03/08 02:09:58;;;;;;;16.38;2.55;;;4.30;99.90;;;;;;5113494;28;20155;-57
2021/03/08 02:12:39;;;;;;;13.05;2.83;;;4.30;99.90;;;;;;5113166;28;20538;-56
2021/03/08 02:15:34;;;;;;;16.02;2.78;;;4.30;99.90;;;;;;5113072;28;20039;-56
2021/03/08 02:18:13;;;;;;;16.33;3.10;;;4.30;99.90;;;;;;5010375;28;20052;-56
2021/03/08 02:20:47;;;;;;;11.13;2.20;;;4.30;99.90;;;;;;5010576;28;20042;-56
2021/03/08 02:23:40;;;;;;;10.85;1.80;;;4.30;99.90;;;;;;5010461;28;20042;-57
2021/03/08 02:26:33;;;;;;;12.63;2.58;;;4.30;99.90;;;;;;5010465;28;20038;-56
2021/03/08 02:29:07;;;;;;;14.80;3.22;;;4.30;99.90;;;;;;5010329;28;20050;-57
2021/03/08 02:31:33;;;;;;;17.45;3.35;;;4.30;99.90;;;;;;5010384;28;20045;-57
2021/03/08 02:34:04;;;;;;;18.38;2.78;;;4.30;99.90;;;;;;5010197;28;20046;-57
2021/03/08 02:36:35;;;;;;;15.07;2.60;;;4.20;99.90;;;;;;5010340;28;20049;-56
2021/03/08 02:39:16;;;;;;;10.68;2.83;;;4.20;99.90;;;;;;5010523;28;20837;-56
2021/03/08 02:41:46;;;;;;;13.50;3.00;;;4.30;99.90;;;;;;5010136;28;20496;-57
2021/03/08 02:44:16;;;;;;;10.77;2.40;;;4.20;99.90;;;;;;5010330;28;20050;-56
2021/03/08 02:46:44;;;;;;;13.07;3.53;;;4.20;99.90;;;;;;5010221;28;20069;-57
2021/03/08 02:49:15;;;;;;;9.18;2.50;;;4.20;99.90;;;;;;5010394;28;20165;-57
2021/03/08 02:51:49;;;;;;;13.07;3.22;;;4.20;99.90;;;;;;5010044;28;20103;-56
2021/03/08 02:54:17;;;;;;;15.27;3.33;;;4.20;99.90;;;;;;5040577;28;20136;-56
2021/03/08 02:56:46;;;;;;;13.32;2.92;;;4.30;99.90;;;;;;5112426;28;20096;-57
2021/03/08 02:59:13;;;;;;;11.57;2.83;;;4.20;99.90;;;;;;5112397;28;20050;-56
2021/03/08 03:01:41;;;;;;;17.95;3.00;;;4.20;99.90;;;;;;5112266;28;20046;-57
2021/03/08 03:04:09;;;;;;;18.17;3.08;;;4.30;99.90;;;;;;5112495;28;20397;-57
2021/03/08 03:06:37;;;;;;;18.60;2.90;;;4.20;99.90;;;;;;5112119;28;20036;-56
2021/03/08 03:09:06;;;;;;;18.83;3.38;;;4.20;99.90;;;;;;5112259;28;20123;-56
2021/03/08 03:11:34;;;;;;;17.63;3.00;;;4.20;99.90;;;;;;5114485;28;20067;-56
2021/03/08 03:14:02;;;;;;;14.30;3.50;;;4.20;99.90;;;;;;5116537;28;20100;-56
2021/03/08 03:16:30;;;;;;;9.90;2.83;;;4.30;99.90;;;;;;5116648;28;20048;-56
2021/03/08 03:18:56;;;;;;;13.25;2.63;;;4.20;99.90;;;;;;5116592;28;20043;-56
2021/03/08 03:21:29;;;;;;;17.52;3.30;;;4.20;99.90;;;;;;5116587;28;20140;-57
2021/03/08 03:23:56;;;;;;;14.50;3.40;;;4.20;99.90;;;;;;5116384;28;20063;-57
2021/03/08 03:26:23;;;;;;;16.27;3.13;;;4.20;99.90;;;;;;5116284;28;20040;-57
2021/03/08 03:28:49;;;;;;;13.85;3.22;;;4.20;99.90;;;;;;5116203;28;20036;-57
2021/03/08 03:31:17;;;;;;;14.07;2.90;;;4.20;99.90;;;;;;5116058;28;20046;-56
2021/03/08 03:33:45;;;;;;;12.95;2.80;;;4.20;99.90;;;;;;5116177;28;20060;-57
2021/03/08 03:36:11;;;;;;;20.35;3.30;;;4.20;99.90;;;;;;5116061;28;20126;-57
2021/03/08 03:38:38;;;;;;;13.60;3.08;;;4.20;99.90;;;;;;5115998;28;20134;-56
2021/03/08 03:41:04;;;;;;;14.38;2.88;;;4.20;99.90;;;;;;5115883;28;20047;-56
2021/03/08 03:43:31;;;;;;;14.00;2.45;;;4.20;99.90;;;;;;5116195;28;20035;-56
2021/03/08 03:46:02;;;;;;;15.23;2.83;;;4.20;99.90;;;;;;5116128;28;20047;-57
2021/03/08 03:48:28;;;;;;;16.77;2.80;;;4.20;99.90;;;;;;5116011;28;20043;-56
2021/03/08 03:50:54;;;;;;;10.98;2.38;;;4.20;99.90;;;;;;5115692;28;20512;-56
2021/03/08 03:53:20;;;;;;;12.70;2.50;;;4.10;99.90;;;;;;5115691;28;20031;-56
2021/03/08 03:55:45;;;;;;;23.52;4.53;;;4.10;99.90;;;;;;5115641;28;20043;-56
2021/03/08 03:58:12;;;;;;;15.70;2.72;;;4.10;99.90;;;;;;5115431;28;20050;-57
2021/03/08 04:00:46;;;;;;;16.48;2.95;;;4.10;99.90;;;;;;5115535;28;20485;-57
2021/03/08 04:03:14;;;;;;;18.98;2.60;;;4.10;99.90;;;;;;5115701;28;20118;-56
2021/03/08 04:05:41;;;;;;;14.73;2.65;;;4.20;99.90;;;;;;5115552;28;20044;-57
2021/03/08 04:08:15;;;;;;;13.52;2.67;;;4.20;99.90;;;;;;5115385;28;20070;-57
2021/03/08 04:10:42;;;;;;;19.85;3.20;;;4.20;99.90;;;;;;5115557;28;20040;-57
2021/03/08 04:13:14;;;;;;;16.67;3.20;;;4.30;99.90;;;;;;5115303;28;20546;-56
2021/03/08 04:15:41;;;;;;;23.38;3.47;;;4.30;99.90;;;;;;5115331;28;20031;-56
2021/03/08 04:18:10;;;;;;;14.10;3.47;;;4.20;99.90;;;;;;5115125;28;20080;-56
2021/03/08 04:20:36;;;;;;;11.93;2.80;;;4.20;99.90;;;;;;5097223;28;20048;-56
2021/03/08 04:23:10;;;;;;;13.23;3.17;;;4.20;99.90;;;;;;5114024;28;20096;-56
2021/03/08 04:25:37;;;;;;;20.15;3.38;;;4.20;99.90;;;;;;5115177;28;20051;-56
2021/03/08 04:28:05;;;;;;;10.35;3.20;;;4.20;99.90;;;;;;5115134;28;20098;-57
2021/03/08 04:30:32;;;;;;;12.32;2.95;;;4.20;99.90;;;;;;5114967;28;20096;-57
2021/03/08 04:32:59;;;;;;;20.65;3.17;;;4.20;99.90;;;;;;5114942;28;20560;-57
2021/03/08 04:35:28;;;;;;;17.25;3.22;;;4.20;99.90;;;;;;5114704;28;20401;-57
2021/03/08 04:37:56;;;;;;;12.88;2.85;;;4.10;99.90;;;;;;5114876;28;20130;-57
2021/03/08 04:40:22;;;;;;;15.43;2.78;;;4.20;99.90;;;;;;5114990;28;20050;-56
2021/03/08 04:42:48;;;;;;;18.05;3.17;;;4.10;99.90;;;;;;5114864;28;20131;-57
2021/03/08 04:45:17;;;;;;;15.07;3.75;;;4.20;99.90;;;;;;5115056;28;20040;-56
2021/03/08 04:47:45;;;;;;;14.50;3.22;;;4.20;99.90;;;;;;5114730;28;20059;-56
2021/03/08 04:50:14;;;;;;;20.23;4.00;;;4.20;99.90;;;;;;5114786;28;20051;-57
2021/03/08 04:52:43;;;;;;;16.63;3.33;;;4.10;99.90;;;;;;5114685;28;20078;-57
2021/03/08 04:55:10;;;;;;;25.80;4.53;;;4.20;99.90;;;;;;5114813;28;20035;-56
2021/03/08 04:57:38;;;;;;;10.30;3.00;;;4.10;99.90;;;;;;5114567;28;20035;-56
2021/03/08 05:00:07;;;;;;;14.63;2.70;;;4.10;99.90;;;;;;5114716;28;20483;-57
2021/03/08 05:02:35;;;;;;;12.75;3.42;;;4.10;99.90;;;;;;5114574;28;20050;-56
2021/03/08 05:05:04;;;;;;;14.23;3.10;;;4.10;99.90;;;;;;5114653;28;20047;-57
2021/03/08 05:07:30;;;;;;;21.70;3.13;;;4.10;99.90;;;;;;5114562;28;20039;-57
2021/03/08 05:09:59;;;;;;;22.05;3.92;;;4.10;99.90;;;;;;5114387;28;20289;-57
2021/03/08 05:12:27;;;;;;;14.20;3.05;;;4.10;99.90;;;;;;5114096;28;20044;-56
2021/03/08 05:14:55;;;;;;;15.20;4.05;;;4.10;99.90;;;;;;5114050;28;20588;-57
2021/03/08 05:17:22;;;;;;;14.40;3.05;;;4.10;99.90;;;;;;5114149;28;20477;-57
2021/03/08 05:19:49;;;;;;;14.38;3.85;;;4.10;99.90;;;;;;5113954;28;20043;-57
2021/03/08 05:22:16;;;;;;;24.35;3.90;;;4.10;99.90;;;;;;5114110;28;20042;-57
2021/03/08 05:24:47;;;;;;;15.75;3.25;;;4.10;99.90;;;;;;5114294;28;20130;-56
2021/03/08 05:27:14;;;;;;;9.38;2.78;;;4.10;99.90;;;;;;5113856;28;20626;-57
2021/03/08 05:29:42;;;;;;;14.27;2.63;;;4.00;99.90;;;;;;5114113;28;20096;-56
2021/03/08 05:32:16;;;;;;;16.70;3.45;;;4.10;99.90;;;;;;5113933;28;20041;-57
2021/03/08 05:34:48;;;;;;;18.40;3.53;;;4.10;99.90;;;;;;5113584;28;20164;-57
2021/03/08 05:37:16;;;;;;;11.32;3.25;;;4.10;99.90;;;;;;5113740;28;20051;-57
2021/03/08 05:39:44;;;;;;;16.70;3.22;;;4.10;99.90;;;;;;5113668;28;20039;-57
2021/03/08 05:42:12;;;;;;;17.83;3.10;;;4.10;99.90;;;;;;5113793;28;20043;-57
2021/03/08 05:45:01;;;;;;;15.20;3.42;;;4.00;99.90;;;;;;5113759;28;20088;-56
2021/03/08 05:47:58;;;;;;;13.00;2.63;;;4.00;99.90;;;;;;5113599;28;20032;-57
2021/03/08 05:50:37;;;;;;;11.75;3.92;;;4.00;99.90;;;;;;5113434;28;20401;-56
2021/03/08 05:53:26;;;;;;;17.13;3.38;;;3.90;99.90;;;;;;5113559;28;20122;-57
2021/03/08 05:56:16;;;;;;;19.23;4.78;;;3.90;99.90;;;;;;5113816;28;20044;-56
2021/03/08 05:59:16;;;;;;;17.10;3.63;;;3.80;99.90;;;;;;5113243;28;20039;-56
2021/03/08 06:02:09;;;;;;;16.27;3.05;;;3.80;99.90;;;;;;5113316;28;20052;-57
2021/03/08 06:04:49;;;;;;;14.00;4.13;;;3.80;99.90;;;;;;5113234;28;20058;-57
2021/03/08 06:07:21;;;;;;;17.70;2.72;;;3.80;99.90;;;;;;5113483;28;20039;-56
2021/03/08 06:10:12;;;;;;;16.98;3.38;;;3.70;99.90;;;;;;5113188;28;20047;-57
2021/03/08 06:12:40;;;;;;;18.48;3.30;;;3.60;99.90;;;;;;5113140;28;20055;-57
2021/03/08 06:15:10;;;;;;;15.50;3.67;;;3.70;99.90;;;;;;5113039;28;20055;-57
2021/03/08 06:17:38;;;;;;;13.60;3.60;;;3.70;99.90;;;;;;5113023;28;20042;-57
2021/03/08 06:20:06;;;;;;;9.95;2.90;;;3.60;99.90;;;;;;5112946;28;20051;-57
2021/03/08 06:22:33;;;;;;;17.08;3.55;;;3.70;99.90;;;;;;5094051;28;20050;-56
2021/03/08 06:25:00;;;;;;;14.93;3.60;;;3.60;99.90;;;;;;5112988;28;20069;-56
2021/03/08 06:27:26;;;;;;;11.82;3.83;;;3.60;99.90;;;;;;5112864;28;20063;-57
2021/03/08 06:29:53;;;;;;;10.77;3.33;;;3.60;99.90;;;;;;5112802;28;20054;-56
2021/03/08 06:32:19;;;;;;;6.15;2.85;;;3.70;99.90;;;;;;5112964;28;20044;-57
2021/03/08 06:34:45;;;;;;;13.32;3.35;;;3.70;99.90;;;;;;5112388;28;20562;-56
2021/03/08 06:37:12;;;;;;;13.40;3.28;;;3.70;99.90;;;;;;5112780;28;20047;-57
2021/03/08 06:39:43;;;;;;;10.23;2.88;;;3.70;99.90;;;;;;5112708;28;20415;-57
2021/03/08 06:42:14;;;;;;;10.82;3.30;;;3.70;99.90;;;;;;5112655;28;20470;-57
2021/03/08 06:44:40;;;;;;;11.65;3.65;;;3.70;99.90;;;;;;5112586;28;20045;-57
2021/03/08 06:47:08;;;;;;;12.70;3.42;;;3.80;99.90;;;;;;5111817;28;20431;-57
2021/03/08 06:49:35;;;;;;;9.27;2.85;;;3.80;99.90;;;;;;5112522;28;20050;-56
2021/03/08 06:52:10;;;;;;;9.23;2.95;;;3.80;99.90;;;;;;5112417;28;20047;-56
2021/03/08 06:54:44;;;;;;;17.02;4.05;;;3.90;99.90;;;;;;5112289;28;20051;-57
2021/03/08 06:57:25;;;;;;;13.88;3.08;;;3.80;99.90;;;;;;5112274;28;20043;-56
2021/03/08 06:59:59;;;;;;;11.57;3.65;;;3.90;99.90;;;;;;5112272;28;20047;-57
2021/03/08 07:02:48;;;;;;;15.73;4.50;;;4.00;99.90;;;;;;5112283;28;20533;-57
2021/03/08 07:05:23;;;;;;;18.48;6.03;;;4.10;99.90;;;;;;5009866;28;20050;-56
2021/03/08 07:07:59;;;;;;;16.45;4.15;;;4.10;99.90;;;;;;5010080;28;20621;-57
2021/03/08 07:10:36;;;;;;;13.65;4.35;;;4.20;99.90;;;;;;5009965;28;20054;-56
2021/03/08 07:13:03;;;;;;;14.93;3.72;;;4.30;99.90;;;;;;5009832;28;20095;-56
2021/03/08 07:15:29;;;;;;;11.95;3.33;;;4.30;99.90;;;;;;5009931;28;20131;-57
2021/03/08 07:17:54;;;;;;;23.58;4.20;;;4.40;99.90;;;;;;5009698;28;20089;-57
2021/03/08 07:20:20;;;;;;;18.85;4.65;;;4.50;99.90;;;;;;5009773;28;20049;-57
2021/03/08 07:22:54;;;;;;;13.57;3.35;;;4.60;99.90;;;;;;4993618;28;20042;-57
2021/03/08 07:25:19;;;;;;;12.50;3.38;;;4.70;99.90;;;;;;5010085;28;20053;-57
2021/03/08 07:27:48;;;;;;;13.00;3.70;;;4.80;99.90;;;;;;5009829;28;20502;-57
2021/03/08 07:30:15;;;;;;;19.00;4.07;;;5.00;99.90;;;;;;5009799;28;20065;-57
2021/03/08 07:33:03;;;;;;;11.30;3.10;;;5.20;99.90;;;;;;5009909;28;20141;-57
2021/03/08 07:35:49;;;;;;;13.15;2.50;;;5.40;99.90;;;;;;5009806;28;20058;-57
2021/03/08 07:38:28;;;;;;;12.23;2.58;;;5.70;99.90;;;;;;5009612;28;20121;-56
2021/03/08 07:41:12;;;;;;;19.50;3.10;;;6.10;99.90;;;;;;5009645;28;20050;-57
2021/03/08 07:43:39;;;;;;;13.23;2.75;;;6.30;99.30;;;;;;5111981;28;20089;-57
2021/03/08 07:46:06;;;;;;;16.25;2.50;;;6.70;99.90;;;;;;5092972;28;20400;-57
2021/03/08 07:48:32;;;;;;;16.80;3.03;;;6.90;98.00;;;;;;5112001;28;20047;-57
2021/03/08 07:51:06;;;;;;;11.75;2.97;;;7.10;98.30;;;;;;5111830;28;20050;-56
2021/03/08 07:53:36;;;;;;;13.15;2.42;;;7.40;97.80;;;;;;5112039;28;20389;-57
2021/03/08 07:56:04;;;;;;;10.70;3.08;;;7.60;97.70;;;;;;5111828;28;20035;-57
2021/03/08 07:58:34;;;;;;;16.13;3.38;;;7.90;97.00;;;;;;5115357;28;20496;-56
2021/03/08 08:01:08;;;;;;;13.77;2.38;;;8.00;93.80;;;;;;5116013;28;20072;-57
2021/03/08 08:03:37;;;;;;;10.75;2.42;;;8.30;93.90;;;;;;5115455;28;20047;-57
2021/03/08 08:06:08;;;;;;;12.13;2.67;;;8.30;95.00;;;;;;5115821;28;20035;-57
2021/03/08 08:08:36;;;;;;;22.70;4.30;;;8.20;95.60;;;;;;5115559;28;20047;-56
2021/03/08 08:11:04;;;;;;;13.57;5.00;;;8.10;93.60;;;;;;5115562;28;20043;-56
2021/03/08 08:13:37;;;;;;;15.73;3.70;;;8.40;95.00;;;;;;5115578;28;20043;-57
2021/03/08 08:16:08;;;;;;;13.55;3.90;;;8.50;94.10;;;;;;5115654;28;20047;-57
2021/03/08 08:18:38;;;;;;;16.52;4.57;;;8.70;95.40;;;;;;5115391;28;20046;-57
2021/03/08 08:21:04;;;;;;;19.00;3.55;;;8.90;94.00;;;;;;5115203;28;20065;-57
2021/03/08 08:23:40;;;;;;;11.30;2.95;;;9.30;94.90;;;;;;5115472;28;20046;-57
2021/03/08 08:26:09;;;;;;;19.33;3.42;;;9.40;91.90;;;;;;5115185;28;20043;-56
2021/03/08 08:28:38;;;;;;;18.38;3.42;;;9.60;91.20;;;;;;5115173;28;20043;-57
2021/03/08 08:31:03;;;;;;;11.65;3.60;;;10.00;91.70;;;;;;5115271;28;20039;-57
2021/03/08 08:33:31;;;;;;;16.90;3.47;;;9.90;92.00;;;;;;5115022;28;20393;-57
2021/03/08 08:36:24;;;;;;;16.17;3.50;;;10.00;90.10;;;;;;5114845;28;20043;-56
2021/03/08 08:38:53;;;;;;;10.20;2.80;;;10.20;92.00;;;;;;5115090;28;20043;-57
2021/03/08 08:41:20;;;;;;;12.43;3.55;;;10.40;92.30;;;;;;5114779;28;20075;-57
2021/03/08 08:44:08;;;;;;;9.88;3.03;;;10.40;90.00;;;;;;5114884;28;20097;-57
2021/03/08 08:46:38;;;;;;;16.98;3.47;;;10.20;90.90;;;;;;5114895;28;20050;-57
2021/03/08 08:49:13;;;;;;;10.95;2.85;;;9.90;91.00;;;;;;5114704;28;20044;-57
2021/03/08 08:51:47;;;;;;;13.38;3.67;;;9.70;91.70;;;;;;5103282;28;20118;-56
2021/03/08 08:54:39;;;;;;;12.82;3.00;;;9.80;90.20;;;;;;5094485;28;20060;-56
2021/03/08 08:57:10;;;;;;;12.07;3.38;;;9.40;86.70;;;;;;5094322;28;20047;-57
2021/03/08 08:59:37;;;;;;;16.08;3.25;;;9.60;89.50;;;;;;5094150;28;20036;-57
2021/03/08 09:02:32;;;;;;;15.65;3.08;;;9.50;91.80;;;;;;5094147;28;20435;-57
2021/03/08 09:04:57;;;;;;;9.85;2.60;;;10.00;88.50;;;;;;5093528;28;20074;-57
2021/03/08 09:07:28;;;;;;;14.30;4.05;;;9.80;87.80;;;;;;5093735;28;20044;-57
2021/03/08 09:09:58;;;;;;;10.07;2.80;;;9.40;90.40;;;;;;5093452;28;20044;-57
2021/03/08 09:12:37;;;;;;;13.43;3.35;;;9.60;90.70;;;;;;5093951;28;20052;-57
2021/03/08 09:15:11;;;;;;;12.27;2.53;;;9.50;88.00;;;;;;5075751;28;20060;-57
2021/03/08 09:17:40;;;;;;;15.77;3.20;;;9.50;89.20;;;;;;5093940;28;20048;-57
2021/03/08 09:20:08;;;;;;;14.02;3.10;;;9.50;87.60;;;;;;5093674;28;20036;-57
2021/03/08 09:22:47;;;;;;;12.43;3.40;;;9.50;89.30;;;;;;5093958;28;20048;-57
2021/03/08 09:25:15;;;;;;;14.43;2.75;;;9.40;90.00;;;;;;5093805;28;20072;-56
2021/03/08 09:27:46;;;;;;;12.43;2.53;;;9.50;90.70;;;;;;5075892;28;20036;-56
2021/03/08 09:30:14;;;;;;;8.63;2.95;;;9.30;90.30;;;;;;5093578;28;20481;-56
2021/03/08 09:32:55;;;;;;;8.85;2.70;;;9.50;85.40;;;;;;5093565;28;20611;-56
2021/03/08 09:35:23;;;;;;;8.95;3.22;;;9.70;84.40;;;;;;5093185;28;20044;-57
2021/03/08 09:37:56;;;;;;;11.45;2.83;;;9.60;83.50;;;;;;5093679;28;20052;-56
2021/03/08 09:40:27;;;;;;;16.30;2.67;;;9.40;86.70;;;;;;5093410;28;20048;-57
2021/03/08 09:42:53;;;;;;;10.73;2.50;;;9.20;89.40;;;;;;5093496;28;20056;-56
2021/03/08 09:45:19;;;;;;;11.50;2.88;;;9.20;87.10;;;;;;5093632;28;20453;-56
2021/03/08 09:47:46;;;;;;;12.68;3.28;;;9.50;85.10;;;;;;5093215;28;20618;-56
2021/03/08 09:50:17;;;;;;;14.90;3.55;;;9.00;84.50;;;;;;5075062;28;20159;-57
2021/03/08 09:52:45;;;;;;;12.60;3.20;;;9.30;87.30;;;;;;5093441;28;20170;-56
2021/03/08 09:55:16;;;;;;;9.65;2.63;;;9.30;87.20;;;;;;5093124;28;20496;-56
2021/03/08 09:57:43;;;;;;;8.57;2.45;;;9.30;83.00;;;;;;5092938;28;20453;-56
2021/03/08 10:00:16;;;;;;;9.90;2.38;;;9.20;83.70;;;;;;5092740;28;20040;-56
2021/03/08 10:02:42;;;;;;;9.80;2.38;;;9.20;84.90;;;;;;5092830;28;20469;-56
2021/03/08 10:05:10;;;;;;;11.43;2.67;;;9.20;85.10;;;;;;5092882;28;20115;-56
2021/03/08 10:07:52;;;;;;;10.02;2.80;;;9.50;86.50;;;;;;5092972;28;20044;-56
2021/03/08 10:10:20;;;;;;;12.10;2.53;;;9.20;81.00;;;;;;5092831;28;20043;-56
2021/03/08 10:12:59;;;;;;;9.80;2.00;;;9.40;78.50;;;;;;5092845;28;20032;-56
2021/03/08 10:15:25;;;;;;;10.07;2.57;;;9.50;77.50;;;;;;5092970;28;20472;-56
2021/03/08 10:17:53;;;;;;;10.75;2.03;;;9.50;81.90;;;;;;5093049;28;20048;-56
2021/03/08 10:20:19;;;;;;;6.82;2.00;;;9.70;79.30;;;;;;5073853;28;20048;-57
2021/03/08 10:22:45;;;;;;;11.85;2.28;;;9.60;79.60;;;;;;5092979;28;20393;-56
2021/03/08 10:25:28;;;;;;;14.20;3.15;;;9.60;75.10;;;;;;5092485;28;20036;-56
2021/03/08 10:28:02;;;;;;;8.60;2.17;;;9.40;77.80;;;;;;5092288;28;20058;-57
2021/03/08 10:30:30;;;;;;;9.73;2.42;;;9.60;78.70;;;;;;5074308;28;20067;-56
2021/03/08 10:33:04;;;;;;;14.20;3.00;;;9.60;80.50;;;;;;5092521;28;20556;-57
2021/03/08 10:35:36;;;;;;;8.55;2.60;;;9.60;77.70;;;;;;5092237;28;20056;-57
2021/03/08 10:38:02;;;;;;;9.50;1.90;;;9.70;81.50;;;;;;5092142;28;20134;-56
2021/03/08 10:40:28;;;;;;;6.63;2.55;;;9.70;79.60;;;;;;5092231;28;20048;-57
2021/03/08 10:42:59;;;;;;;14.85;2.75;;;9.60;81.20;;;;;;5092046;28;20374;-57
2021/03/08 10:45:26;;;;;;;10.88;2.92;;;9.60;79.00;;;;;;5092240;28;20040;-56
2021/03/08 10:48:09;;;;;;;13.70;2.50;;;9.40;82.90;;;;;;5092293;28;20178;-57
2021/03/08 10:50:52;;;;;;;9.48;2.42;;;9.30;82.70;;;;;;5092327;28;20115;-56
2021/03/08 10:53:23;;;;;;;14.48;3.58;;;9.40;85.10;;;;;;5092159;28;20127;-56
2021/03/08 10:55:51;;;;;;;12.10;2.72;;;9.40;83.80;;;;;;5074169;28;20074;-56
2021/03/08 10:58:32;;;;;;;10.75;2.78;;;9.30;86.20;;;;;;5074000;28;20132;-56
2021/03/08 11:01:09;;;;;;;10.98;2.35;;;9.40;85.00;;;;;;5092060;28;20067;-56
2021/03/08 11:03:36;;;;;;;13.15;3.30;;;9.30;83.00;;;;;;5092155;28;20396;-56
2021/03/08 11:06:07;;;;;;;10.23;3.28;;;9.10;85.10;;;;;;5091867;28;20040;-56
2021/03/08 11:08:38;;;;;;;8.70;2.28;;;9.20;84.50;;;;;;5091938;28;20037;-57
2021/03/08 11:11:15;;;;;;;14.90;3.10;;;9.20;87.70;;;;;;5092277;28;20082;-56
2021/03/08 11:13:41;;;;;;;10.10;2.38;;;9.50;86.50;;;;;;5092064;28;20109;-56
2021/03/08 11:16:08;;;;;;;10.45;2.55;;;9.60;84.30;;;;;;5092000;28;20419;-56
2021/03/08 11:18:34;;;;;;;8.75;2.80;;;9.70;85.50;;;;;;5091844;28;20117;-56
2021/03/08 11:21:20;;;;;;;6.10;2.92;;;9.80;84.50;;;;;;5074015;28;20059;-56
2021/03/08 11:23:46;;;;;;;8.40;3.35;;;9.50;83.70;;;;;;5091682;28;20044;-56
2021/03/08 11:26:12;;;;;;;8.68;3.13;;;9.50;84.80;;;;;;5073732;28;20044;-56
2021/03/08 11:28:39;;;;;;;5.80;2.50;;;9.50;86.00;;;;;;5091844;28;20055;-57
2021/03/08 11:31:06;;;;;;;6.30;2.70;;;9.60;90.00;;;;;;5091720;28;20047;-56
2021/03/08 11:33:36;;;;;;;9.95;2.55;;;9.40;89.20;;;;;;5095471;28;20043;-56
2021/03/08 11:36:02;;;;;;;10.38;2.80;;;9.30;86.70;;;;;;5095523;28;20036;-56
2021/03/08 11:38:28;;;;;;;10.55;3.15;;;9.30;86.10;;;;;;5095729;28;20074;-57
2021/03/08 11:40:55;;;;;;;12.88;3.35;;;9.30;86.90;;;;;;5095742;28;20040;-56
2021/03/08 11:43:23;;;;;;;11.57;3.00;;;9.30;86.30;;;;;;5077425;28;20040;-56
2021/03/08 11:45:50;;;;;;;8.65;2.90;;;9.20;87.00;;;;;;5095587;28;20044;-56
2021/03/08 11:48:19;;;;;;;11.30;2.85;;;9.30;88.00;;;;;;5095596;28;20127;-57
2021/03/08 11:50:45;;;;;;;8.63;3.17;;;9.20;88.80;;;;;;5095340;28;20044;-56
2021/03/08 11:53:11;;;;;;;10.13;2.78;;;9.30;89.80;;;;;;5095597;28;20044;-56
2021/03/08 11:55:37;;;;;;;9.50;3.10;;;9.40;88.50;;;;;;5095634;28;20145;-56
2021/03/08 11:58:03;;;;;;;9.93;2.75;;;9.60;90.20;;;;;;5095388;28;20048;-56
2021/03/08 12:00:29;;;;;;;8.60;2.95;;;9.60;88.20;;;;;;5094968;28;20481;-56
2021/03/08 12:02:54;;;;;;;9.07;2.85;;;9.40;88.90;;;;;;5094891;28;20047;-56
2021/03/08 12:05:20;;;;;;;16.95;3.20;;;9.40;90.10;;;;;;5095206;28;20410;-56
2021/03/08 12:07:46;;;;;;;8.90;3.28;;;9.40;90.00;;;;;;5077505;28;20421;-56
2021/03/08 12:10:13;;;;;;;10.82;2.55;;;9.30;90.40;;;;;;5095414;28;20055;-56
2021/03/08 12:12:39;;;;;;;12.27;3.53;;;9.40;90.40;;;;;;5095278;28;20048;-56
2021/03/08 12:15:07;;;;;;;11.95;3.65;;;9.30;91.20;;;;;;5095096;28;20040;-56
2021/03/08 12:17:33;;;;;;;9.90;2.85;;;9.20;91.30;;;;;;5095078;28;20056;-55
2021/03/08 12:19:59;;;;;;;8.70;3.10;;;9.30;91.70;;;;;;5094908;28;20043;-56
2021/03/08 12:22:25;;;;;;;8.60;3.08;;;9.30;91.50;;;;;;5095008;28;20040;-57
2021/03/08 12:24:52;;;;;;;11.90;3.25;;;9.30;90.70;;;;;;5094976;28;20097;-56
2021/03/08 12:27:18;;;;;;;11.10;3.28;;;9.20;92.10;;;;;;5095129;28;20071;-56
2021/03/08 12:29:43;;;;;;;10.82;3.22;;;9.30;92.90;;;;;;5094729;28;20047;-56
2021/03/08 12:32:09;;;;;;;11.65;4.13;;;9.20;92.90;;;;;;5094594;28;20473;-56
2021/03/08 12:34:35;;;;;;;10.77;3.38;;;9.00;92.60;;;;;;5094618;28;20450;-57
2021/03/08 12:37:01;;;;;;;11.18;3.40;;;9.00;93.30;;;;;;5094357;28;20127;-56
2021/03/08 12:39:27;;;;;;;10.63;3.30;;;8.90;92.50;;;;;;5094192;28;20131;-56
2021/03/08 12:41:53;;;;;;;13.40;3.05;;;8.70;93.10;;;;;;5094649;28;20044;-57
2021/03/08 12:44:19;;;;;;;15.50;4.38;;;8.80;93.60;;;;;;5093512;28;20036;-56
2021/03/08 12:46:44;;;;;;;14.43;3.92;;;8.70;93.60;;;;;;5094344;28;20043;-56
2021/03/08 12:49:11;;;;;;;8.00;3.15;;;8.70;94.30;;;;;;5094261;28;20401;-56
2021/03/08 12:51:36;;;;;;;12.95;4.00;;;8.70;94.20;;;;;;5094379;28;20428;-56
2021/03/08 12:54:02;;;;;;;11.15;4.10;;;8.70;93.80;;;;;;5094435;28;20081;-56
2021/03/08 12:56:28;;;;;;;11.63;3.22;;;8.60;93.60;;;;;;5094441;28;20043;-56
2021/03/08 12:58:54;;;;;;;11.63;3.05;;;8.50;94.50;;;;;;5076199;28;20047;-56
2021/03/08 13:01:20;;;;;;;9.05;3.08;;;8.50;94.30;;;;;;5094197;28;20040;-56